Ashford, Alabama
Current Conditions -  °F | °C
As of 6:53 AM on Friday 31 Oct 2014 (Local Time) from KDHN Reporting Station
Clear Clear  
Wind Chill: 40°   Ceiling: Unl
Heat Index: 44°   Visibility: 10mi
Dew Point: 40°   Wind: 7mph
Humidity: 85%   Direction: 330°NNW
Pressure: 30"   Gusts: NA
Location:  31.18°N, 85.24°W
Report Text: KDHN 311153Z 33006KT 10SM CLR 07/04 A3000 RMK AO2 SLP157 T00670044 10094 20056 53005
Loading
Personal Weather Stations






























Interactive Weather Map
Tropical Storm Tracking
New forecast layout! Learn more

10-Day Weather Forecast

Advertisements
Track Severe Weather on mobile